首页
METAR-TAF:

METAR-TAF

机场 :

倫敦希斯路機場, 英格兰

纬度: 51-29N, 经度: 000-27W, 海拔: 24米

当前天气观测

该预报发布于23分钟前的00:50 UTC
风速6节,风向南转西南
温度 10°C
湿度 76%
气压 1013 hPa
能见度10公里或以上

METAR: EGLL 130050Z AUTO 21006KT 9999 NCD 10/06 Q1013 NOSIG

时间: 01:13 (01:13 UTC)

预报

该预报发布于2小时和15分钟前的22:58 UTC
预报有效从13日的 00点(UTC)到 14日的 06点(UTC)
风速10节,风向
能见度10公里或以上
散云层高于3000英尺
成为
从 13日的 00点(UTC)到 13日的 03点(UTC)
风速10节,风向西转西南
几率 30% :
短暂存在
从 13日的 00点(UTC)到 13日的 02点(UTC)
能見度: 7000
阵雨
成为
从 13日的 16点(UTC)到 13日的 19点(UTC)
风速8节,风向

TAF: EGLL 122258Z 1300/1406 19010KT 9999 SCT030 BECMG 1300/1303 25010KT PROB30 TEMPO 1300/1302 7000 SHRA BECMG 1316/1319 19008KT

超过4000个机场的气象观测和天气预报(METAR&TAF报告)。

可查询的气象台以黄色和红色小点在地图上表示。

将鼠标移到小点上方,可查看气象台名称。

然后点击查看天气观测和预报。

如需切换地图:点击带黑十字的绿色按钮放大地图;点击带横线的绿色按钮缩小地图;或者点击绿色箭头查看邻近地区的地图。


METAR-TAF: